Time;durP1;ratioP1;P1;durP2;ratioP2;P2;SDS_P1;SDS_P2;PMS_P1;PMS_P2;Temp;Humidity;BMP_temperature;BMP_pressure;BME280_temperature;BME280_humidity;BME280_pressure;Samples;Min_cycle;Max_cycle;Signal;HPM_P1;HPM_P2
2023/01/31 00:00:46;;;;;;;86.30;48.53;;;;;;;;;;5012773;28;20105;-74
2023/01/31 00:03:12;;;;;;;81.10;47.57;;;;;;;;;;5012763;28;20065;-74
2023/01/31 00:05:38;;;;;;;82.60;48.10;;;;;;;;;;5012707;28;20117;-74
2023/01/31 00:08:04;;;;;;;82.47;47.53;;;;;;;;;;4995297;28;20034;-74
2023/01/31 00:10:30;;;;;;;91.10;49.33;;;;;;;;;;5012902;28;20054;-74
2023/01/31 00:12:56;;;;;;;74.93;45.50;;;;;;;;;;5012808;28;20030;-74
2023/01/31 00:15:23;;;;;;;78.60;46.60;;;;;;;;;;5012811;28;20049;-74
2023/01/31 00:17:49;;;;;;;83.30;48.40;;;;;;;;;;5012630;28;20101;-76
2023/01/31 00:20:15;;;;;;;78.67;45.93;;;;;;;;;;5012679;28;20037;-74
2023/01/31 00:22:41;;;;;;;82.47;46.33;;;;;;;;;;4995323;28;20076;-75
2023/01/31 00:25:07;;;;;;;79.43;46.60;;;;;;;;;;5012939;28;20041;-75
2023/01/31 00:27:33;;;;;;;80.47;45.60;;;;;;;;;;4995239;28;20026;-74
2023/01/31 00:29:59;;;;;;;84.30;47.57;;;;;;;;;;5012814;28;20049;-73
2023/01/31 00:32:25;;;;;;;78.27;45.53;;;;;;;;;;5012740;28;20026;-74
2023/01/31 00:34:55;;;;;;;80.33;46.87;;;;;;;;;;4995334;28;20037;-74
2023/01/31 00:37:21;;;;;;;78.30;44.57;;;;;;;;;;5012706;28;20034;-74
2023/01/31 00:39:47;;;;;;;74.57;43.37;;;;;;;;;;5012586;28;20045;-74
2023/01/31 00:42:13;;;;;;;75.23;44.27;;;;;;;;;;5012307;28;20109;-74
2023/01/31 00:44:40;;;;;;;79.97;45.10;;;;;;;;;;5012696;28;20045;-73
2023/01/31 00:47:06;;;;;;;71.87;43.50;;;;;;;;;;4995104;28;20068;-73
2023/01/31 00:49:32;;;;;;;73.57;43.40;;;;;;;;;;4994964;28;20452;-73
2023/01/31 00:51:58;;;;;;;76.13;42.90;;;;;;;;;;5012469;28;20034;-73
2023/01/31 00:54:24;;;;;;;71.80;42.03;;;;;;;;;;5012475;28;20030;-74
2023/01/31 00:56:50;;;;;;;74.93;43.40;;;;;;;;;;5012448;28;20045;-73
2023/01/31 00:59:16;;;;;;;66.60;39.47;;;;;;;;;;5014705;28;20053;-73
2023/01/31 01:01:42;;;;;;;68.60;40.27;;;;;;;;;;5016058;28;20164;-73
2023/01/31 01:04:08;;;;;;;69.90;40.23;;;;;;;;;;5016022;28;20045;-74
2023/01/31 01:06:34;;;;;;;64.77;39.83;;;;;;;;;;5016451;28;20065;-73
2023/01/31 01:09:01;;;;;;;69.27;40.07;;;;;;;;;;5016084;28;20034;-74
2023/01/31 01:11:28;;;;;;;66.73;40.97;;;;;;;;;;5015966;28;20034;-74
2023/01/31 01:13:55;;;;;;;72.13;40.60;;;;;;;;;;5016367;28;20026;-74
2023/01/31 01:16:26;;;;;;;64.87;40.40;;;;;;;;;;5016361;28;20034;-74
2023/01/31 01:18:53;;;;;;;71.47;41.07;;;;;;;;;;5016283;28;20433;-74
2023/01/31 01:21:24;;;;;;;65.10;39.33;;;;;;;;;;5016056;28;20032;-73
2023/01/31 01:23:50;;;;;;;69.53;39.57;;;;;;;;;;5016054;28;20053;-73
2023/01/31 01:26:27;;;;;;;68.27;39.70;;;;;;;;;;5016031;28;20037;-74
2023/01/31 01:28:54;;;;;;;69.80;40.73;;;;;;;;;;5015623;28;20121;-74
2023/01/31 01:31:21;;;;;;;67.67;39.17;;;;;;;;;;5015656;28;20065;-73
2023/01/31 01:33:48;;;;;;;74.40;43.97;;;;;;;;;;5015901;28;20032;-74
2023/01/31 01:36:20;;;;;;;77.60;45.87;;;;;;;;;;5015892;28;20038;-74
2023/01/31 01:38:47;;;;;;;72.97;41.60;;;;;;;;;;5015815;28;20438;-74
2023/01/31 01:41:13;;;;;;;72.50;41.17;;;;;;;;;;5015638;28;20084;-74
2023/01/31 01:43:45;;;;;;;64.70;38.60;;;;;;;;;;5015812;28;20041;-74
2023/01/31 01:46:14;;;;;;;69.53;40.23;;;;;;;;;;5015722;28;20029;-74
2023/01/31 01:48:41;;;;;;;69.20;39.57;;;;;;;;;;4997554;28;20041;-74
2023/01/31 01:51:07;;;;;;;62.60;38.00;;;;;;;;;;5015507;28;20042;-74
2023/01/31 01:53:35;;;;;;;68.90;38.47;;;;;;;;;;4997796;28;20064;-74
2023/01/31 01:56:03;;;;;;;67.40;38.23;;;;;;;;;;5015482;28;20037;-74
2023/01/31 01:58:31;;;;;;;69.23;38.73;;;;;;;;;;5013124;28;20042;-73
2023/01/31 02:00:57;;;;;;;63.27;38.23;;;;;;;;;;4994812;28;20034;-74
2023/01/31 02:03:23;;;;;;;63.63;37.40;;;;;;;;;;5012167;28;20041;-74
2023/01/31 02:05:52;;;;;;;67.27;38.37;;;;;;;;;;5014648;28;20038;-74
2023/01/31 02:08:21;;;;;;;70.53;39.00;;;;;;;;;;5015127;28;20524;-73
2023/01/31 02:10:47;;;;;;;63.23;37.67;;;;;;;;;;5014388;28;20041;-74
2023/01/31 02:13:14;;;;;;;69.60;37.37;;;;;;;;;;5014653;28;20053;-74
2023/01/31 02:15:40;;;;;;;60.87;35.00;;;;;;;;;;5015144;28;20073;-74
2023/01/31 02:18:07;;;;;;;61.40;36.20;;;;;;;;;;4996945;28;20110;-74
2023/01/31 02:20:40;;;;;;;62.33;36.10;;;;;;;;;;4997024;28;20108;-74
2023/01/31 02:23:09;;;;;;;60.38;36.60;;;;;;;;;;5014940;28;20535;-74
2023/01/31 02:25:54;;;;;;;59.97;35.93;;;;;;;;;;5014634;28;20061;-74
2023/01/31 02:28:31;;;;;;;66.73;36.53;;;;;;;;;;4996454;28;20045;-73
2023/01/31 02:30:57;;;;;;;67.07;37.70;;;;;;;;;;5014633;28;20046;-74
2023/01/31 02:33:26;;;;;;;61.07;35.27;;;;;;;;;;5014708;28;20496;-73
2023/01/31 02:35:55;;;;;;;61.47;35.20;;;;;;;;;;5013931;28;20519;-74
2023/01/31 02:38:39;;;;;;;60.30;35.70;;;;;;;;;;5014720;28;20092;-74
2023/01/31 02:41:24;;;;;;;62.40;36.67;;;;;;;;;;5014435;28;20038;-74
2023/01/31 02:46:57;;;;;;;68.43;37.40;;;;;;;;;;5014677;28;20040;-74
2023/01/31 02:49:41;;;;;;;61.00;35.67;;;;;;;;;;5014122;28;20037;-74
2023/01/31 02:52:17;;;;;;;61.97;36.10;;;;;;;;;;4997035;28;20100;-74
2023/01/31 02:57:52;;;;;;;68.17;36.80;;;;;;;;;;4993859;28;20072;-75
2023/01/31 03:00:19;;;;;;;63.97;35.90;;;;;;;;;;5013796;28;20050;-74
2023/01/31 03:02:45;;;;;;;67.80;37.30;;;;;;;;;;5014477;28;20030;-75
2023/01/31 03:05:15;;;;;;;103.53;39.03;;;;;;;;;;5014104;28;20057;-73
2023/01/31 03:07:43;;;;;;;92.67;38.80;;;;;;;;;;5014168;28;20384;-74
2023/01/31 03:10:27;;;;;;;79.50;37.33;;;;;;;;;;5013671;28;20120;-74
2023/01/31 03:13:05;;;;;;;73.03;37.23;;;;;;;;;;5013847;28;20080;-75
2023/01/31 03:18:46;;;;;;;66.17;34.67;;;;;;;;;;5013903;28;20045;-74
2023/01/31 03:21:13;;;;;;;;;;;;;;;;;;5014237;28;20069;-74
2023/01/31 03:23:40;;;;;;;61.60;34.13;;;;;;;;;;5013186;28;19910;-75
2023/01/31 03:26:07;;;;;;;64.63;37.27;;;;;;;;;;5013541;28;20033;-74
2023/01/31 03:28:35;;;;;;;65.30;35.37;;;;;;;;;;5013295;28;20030;-74
2023/01/31 03:31:08;;;;;;;63.73;36.03;;;;;;;;;;5013525;28;20052;-74
2023/01/31 03:33:36;;;;;;;67.53;37.45;;;;;;;;;;5013654;28;20030;-75
2023/01/31 03:36:20;;;;;;;66.17;36.57;;;;;;;;;;5013631;28;20034;-73
2023/01/31 03:38:59;;;;;;;64.50;35.73;;;;;;;;;;5013332;28;20026;-74
2023/01/31 03:41:30;;;;;;;62.63;37.47;;;;;;;;;;5013406;28;20030;-74
2023/01/31 03:44:11;;;;;;;75.60;47.87;;;;;;;;;;4995793;28;20033;-74
2023/01/31 03:46:40;;;;;;;66.07;38.53;;;;;;;;;;5013337;28;20057;-74
2023/01/31 03:49:08;;;;;;;62.73;37.23;;;;;;;;;;5013348;28;20084;-74
2023/01/31 03:51:36;;;;;;;63.77;36.47;;;;;;;;;;5013108;28;20034;-74
2023/01/31 03:54:07;;;;;;;62.97;35.27;;;;;;;;;;5012990;28;20040;-74
2023/01/31 03:56:33;;;;;;;67.00;35.23;;;;;;;;;;4995691;28;20033;-74
2023/01/31 03:59:02;;;;;;;61.43;33.60;;;;;;;;;;4995256;28;20054;-74
2023/01/31 04:01:30;;;;;;;65.23;33.40;;;;;;;;;;5013269;28;20081;-75
2023/01/31 04:04:07;;;;;;;65.87;34.47;;;;;;;;;;5012714;28;20033;-74
2023/01/31 04:06:33;;;;;;;67.70;34.30;;;;;;;;;;5012883;28;20061;-74
2023/01/31 04:08:59;;;;;;;58.33;33.57;;;;;;;;;;5013008;28;20052;-74
2023/01/31 04:11:26;;;;;;;65.37;35.50;;;;;;;;;;5013092;28;20034;-75
2023/01/31 04:13:52;;;;;;;58.47;33.73;;;;;;;;;;4995301;28;20502;-74
2023/01/31 04:16:18;;;;;;;61.27;33.97;;;;;;;;;;5012777;28;20111;-75
2023/01/31 04:18:44;;;;;;;58.50;34.97;;;;;;;;;;5012871;28;20034;-74
2023/01/31 04:21:10;;;;;;;54.70;32.10;;;;;;;;;;5012608;28;20045;-75
2023/01/31 04:23:36;;;;;;;59.87;32.47;;;;;;;;;;5012495;28;20038;-75
2023/01/31 04:26:03;;;;;;;55.03;32.03;;;;;;;;;;5012673;28;20042;-75
2023/01/31 04:28:29;;;;;;;61.10;34.63;;;;;;;;;;5012550;28;20041;-75
2023/01/31 04:30:55;;;;;;;57.63;33.43;;;;;;;;;;5012679;28;20129;-75
2023/01/31 04:33:22;;;;;;;56.63;31.63;;;;;;;;;;5014433;28;20037;-75
2023/01/31 04:35:50;;;;;;;57.43;33.07;;;;;;;;;;5019117;28;20096;-75
2023/01/31 04:38:16;;;;;;;61.40;34.67;;;;;;;;;;5019099;28;20037;-75
2023/01/31 04:40:42;;;;;;;61.20;35.57;;;;;;;;;;5019019;28;20042;-75
2023/01/31 04:43:08;;;;;;;55.67;32.37;;;;;;;;;;5001683;28;20049;-75
2023/01/31 04:45:35;;;;;;;60.63;33.27;;;;;;;;;;5019216;28;20049;-76
2023/01/31 04:48:01;;;;;;;61.37;34.70;;;;;;;;;;5019252;28;20494;-74
2023/01/31 04:50:27;;;;;;;57.70;32.67;;;;;;;;;;5018902;28;20088;-75
2023/01/31 04:52:54;;;;;;;56.63;33.03;;;;;;;;;;5001343;28;20042;-76
2023/01/31 04:55:21;;;;;;;55.53;33.80;;;;;;;;;;5019197;28;20415;-75
2023/01/31 04:57:47;;;;;;;64.10;33.33;;;;;;;;;;5019049;28;20041;-75
2023/01/31 05:00:13;;;;;;;55.97;32.57;;;;;;;;;;5018929;28;20596;-75
2023/01/31 05:02:39;;;;;;;56.00;32.00;;;;;;;;;;5019103;28;20034;-75
2023/01/31 05:05:06;;;;;;;57.13;32.57;;;;;;;;;;5019109;28;20038;-74
2023/01/31 05:07:32;;;;;;;54.37;31.13;;;;;;;;;;5019047;28;20113;-75
2023/01/31 05:09:58;;;;;;;60.50;34.10;;;;;;;;;;5018887;28;20476;-75
2023/01/31 05:12:25;;;;;;;56.20;32.00;;;;;;;;;;5018658;28;20030;-75
2023/01/31 05:14:51;;;;;;;57.40;32.70;;;;;;;;;;5018494;28;20041;-75
2023/01/31 05:17:24;;;;;;;60.90;33.30;;;;;;;;;;5018574;28;20038;-75
2023/01/31 05:19:50;;;;;;;60.53;33.33;;;;;;;;;;5001196;28;20038;-75
2023/01/31 05:22:17;;;;;;;59.27;32.77;;;;;;;;;;5018947;28;20080;-73
2023/01/31 05:24:43;;;;;;;62.73;33.60;;;;;;;;;;5018706;28;20057;-74
2023/01/31 05:27:09;;;;;;;60.10;33.63;;;;;;;;;;5019140;28;20076;-74
2023/01/31 05:29:35;;;;;;;59.73;33.67;;;;;;;;;;5019094;28;20100;-74
2023/01/31 05:32:02;;;;;;;59.80;33.87;;;;;;;;;;5018741;28;20455;-74
2023/01/31 05:34:31;;;;;;;59.00;34.50;;;;;;;;;;5018918;28;20026;-74
2023/01/31 05:36:57;;;;;;;59.03;34.07;;;;;;;;;;5018896;28;20058;-75
2023/01/31 05:39:23;;;;;;;57.87;31.60;;;;;;;;;;5018631;28;20034;-74
2023/01/31 05:41:50;;;;;;;57.73;33.90;;;;;;;;;;5018520;28;20042;-75
2023/01/31 05:44:16;;;;;;;59.60;34.13;;;;;;;;;;5018163;28;20041;-74
2023/01/31 05:46:42;;;;;;;61.17;35.10;;;;;;;;;;5011507;28;20045;-74
2023/01/31 05:49:09;;;;;;;57.97;32.87;;;;;;;;;;5035192;28;20053;-75
2023/01/31 05:51:35;;;;;;;59.10;32.67;;;;;;;;;;5035075;28;20029;-74
2023/01/31 05:54:01;;;;;;;51.70;29.83;;;;;;;;;;5035055;28;20033;-74
2023/01/31 05:56:27;;;;;;;54.67;30.57;;;;;;;;;;5035138;28;20072;-74
2023/01/31 05:58:53;;;;;;;53.57;29.17;;;;;;;;;;5034882;28;20061;-76
2023/01/31 06:01:20;;;;;;;56.43;30.80;;;;;;;;;;5035187;28;20116;-74
2023/01/31 06:03:46;;;;;;;57.27;29.83;;;;;;;;;;5035236;28;20034;-75
2023/01/31 06:06:13;;;;;;;52.43;30.97;;;;;;;;;;5035241;28;20030;-73
2023/01/31 06:08:40;;;;;;;51.13;29.03;;;;;;;;;;5034938;28;20060;-75
2023/01/31 06:11:07;;;;;;;49.03;29.43;;;;;;;;;;5034786;28;20045;-75
2023/01/31 06:13:33;;;;;;;47.17;29.33;;;;;;;;;;5034618;28;20034;-75
2023/01/31 06:15:59;;;;;;;53.67;31.43;;;;;;;;;;5034679;28;20049;-75
2023/01/31 06:18:25;;;;;;;55.83;29.70;;;;;;;;;;5034861;28;20038;-75
2023/01/31 06:20:52;;;;;;;52.27;30.47;;;;;;;;;;5035042;28;20048;-75
2023/01/31 06:23:19;;;;;;;57.93;32.67;;;;;;;;;;5017104;28;20081;-75
2023/01/31 06:25:48;;;;;;;59.77;33.17;;;;;;;;;;5034694;28;20037;-75
2023/01/31 06:28:14;;;;;;;60.40;33.13;;;;;;;;;;5034412;28;20046;-74
2023/01/31 06:30:40;;;;;;;62.67;35.57;;;;;;;;;;5034514;28;20478;-75
2023/01/31 06:33:07;;;;;;;66.20;36.97;;;;;;;;;;5034553;28;20052;-75
2023/01/31 06:35:33;;;;;;;57.47;35.17;;;;;;;;;;5034437;28;20030;-75
2023/01/31 06:37:59;;;;;;;51.10;30.43;;;;;;;;;;5034491;28;20030;-75
2023/01/31 06:40:26;;;;;;;57.63;29.30;;;;;;;;;;5034309;28;20041;-75
2023/01/31 06:42:52;;;;;;;60.90;33.73;;;;;;;;;;5033584;28;20488;-75
2023/01/31 06:45:18;;;;;;;55.80;30.50;;;;;;;;;;5014601;28;20041;-76
2023/01/31 06:47:44;;;;;;;60.03;34.33;;;;;;;;;;4996922;28;20499;-75
2023/01/31 06:50:11;;;;;;;58.77;34.50;;;;;;;;;;5014346;28;20384;-75
2023/01/31 06:52:37;;;;;;;57.90;32.63;;;;;;;;;;5014440;28;20480;-75
2023/01/31 06:55:04;;;;;;;60.03;33.13;;;;;;;;;;4996708;28;20045;-75
2023/01/31 06:57:30;;;;;;;61.53;34.00;;;;;;;;;;5014212;28;20507;-74
2023/01/31 06:59:56;;;;;;;69.43;38.30;;;;;;;;;;5014011;28;20132;-75
2023/01/31 07:02:22;;;;;;;60.43;34.03;;;;;;;;;;5014302;28;20037;-75
2023/01/31 07:04:48;;;;;;;55.90;28.97;;;;;;;;;;5014007;28;20034;-75
2023/01/31 07:07:14;;;;;;;46.33;27.17;;;;;;;;;;5014197;28;20095;-75
2023/01/31 07:09:40;;;;;;;49.60;27.10;;;;;;;;;;5013730;28;20049;-75
2023/01/31 07:12:06;;;;;;;46.77;26.80;;;;;;;;;;5014074;28;20034;-76
2023/01/31 07:14:32;;;;;;;52.63;28.03;;;;;;;;;;5013840;28;20042;-75
2023/01/31 07:16:58;;;;;;;57.37;31.67;;;;;;;;;;5014069;28;20132;-74
2023/01/31 07:19:25;;;;;;;52.20;28.50;;;;;;;;;;4996128;28;20044;-73
2023/01/31 07:21:51;;;;;;;49.97;28.17;;;;;;;;;;5013783;28;20121;-74
2023/01/31 07:24:17;;;;;;;54.90;30.73;;;;;;;;;;4996050;28;20049;-75
2023/01/31 07:26:43;;;;;;;49.63;28.93;;;;;;;;;;5013650;28;20508;-75
2023/01/31 07:29:10;;;;;;;53.47;30.20;;;;;;;;;;5013561;28;20080;-75
2023/01/31 07:31:36;;;;;;;47.93;29.70;;;;;;;;;;5013442;28;20038;-75
2023/01/31 07:34:02;;;;;;;58.97;30.60;;;;;;;;;;5013728;28;20473;-74
2023/01/31 07:36:28;;;;;;;69.53;32.83;;;;;;;;;;5013554;28;20045;-75
2023/01/31 07:38:56;;;;;;;59.43;30.47;;;;;;;;;;5015845;28;20116;-74
2023/01/31 07:41:22;;;;;;;61.33;31.60;;;;;;;;;;5013125;28;20066;-74
2023/01/31 07:43:48;;;;;;;50.90;29.93;;;;;;;;;;5012827;28;20034;-75
2023/01/31 07:46:14;;;;;;;61.73;30.50;;;;;;;;;;5013031;28;20061;-75
2023/01/31 07:48:40;;;;;;;58.53;30.80;;;;;;;;;;4995571;28;20048;-75
2023/01/31 07:51:07;;;;;;;59.27;32.57;;;;;;;;;;5013095;28;20604;-75
2023/01/31 07:53:34;;;;;;;59.77;30.17;;;;;;;;;;5013283;28;20030;-75
2023/01/31 07:56:11;;;;;;;68.03;31.43;;;;;;;;;;5013001;28;20060;-75
2023/01/31 07:58:37;;;;;;;48.97;28.87;;;;;;;;;;5013051;28;20058;-75
2023/01/31 08:03:48;;;;;;;56.17;28.17;;;;;;;;;;5013176;28;20045;-75
2023/01/31 08:06:14;;;;;;;57.60;29.13;;;;;;;;;;5012589;28;20046;-75
2023/01/31 08:08:41;;;;;;;49.27;27.10;;;;;;;;;;5012234;28;20034;-75
2023/01/31 08:11:07;;;;;;;54.63;28.07;;;;;;;;;;4994931;28;20552;-75
2023/01/31 08:13:34;;;;;;;48.47;28.03;;;;;;;;;;5012878;28;20029;-75
2023/01/31 08:16:00;;;;;;;54.70;28.13;;;;;;;;;;5012738;28;20069;-75
2023/01/31 08:18:26;;;;;;;50.63;28.07;;;;;;;;;;5012738;28;20532;-75
2023/01/31 08:20:52;;;;;;;51.83;27.10;;;;;;;;;;4995242;28;20037;-75
2023/01/31 08:23:19;;;;;;;52.13;29.27;;;;;;;;;;5012466;28;20057;-76
2023/01/31 08:25:45;;;;;;;58.03;30.70;;;;;;;;;;5009731;28;20449;-74
2023/01/31 08:28:11;;;;;;;56.70;31.93;;;;;;;;;;5009956;28;20053;-72
2023/01/31 08:30:41;;;;;;;52.37;29.87;;;;;;;;;;5011156;28;20073;-72
2023/01/31 08:33:07;;;;;;;53.80;29.13;;;;;;;;;;5011963;28;20388;-72
2023/01/31 08:35:33;;;;;;;51.90;29.17;;;;;;;;;;4994862;28;20030;-75
2023/01/31 08:37:59;;;;;;;49.43;29.90;;;;;;;;;;5012375;28;20040;-75
2023/01/31 08:40:26;;;;;;;47.33;28.07;;;;;;;;;;4994266;28;20399;-74
2023/01/31 08:42:55;;;;;;;51.57;28.30;;;;;;;;;;5012315;28;20096;-74
2023/01/31 08:45:22;;;;;;;46.07;25.33;;;;;;;;;;5011978;28;20065;-74
2023/01/31 08:47:48;;;;;;;49.00;26.20;;;;;;;;;;5012081;28;20066;-74
2023/01/31 08:50:14;;;;;;;42.60;25.97;;;;;;;;;;5012458;28;20050;-75
2023/01/31 08:52:40;;;;;;;40.60;24.40;;;;;;;;;;5012231;28;20131;-76
2023/01/31 08:55:08;;;;;;;41.63;24.23;;;;;;;;;;5011934;28;20034;-75
2023/01/31 08:57:34;;;;;;;48.80;26.37;;;;;;;;;;5012273;28;20026;-76
2023/01/31 09:00:00;;;;;;;39.63;24.20;;;;;;;;;;5011886;28;20098;-74
2023/01/31 09:02:27;;;;;;;38.63;23.50;;;;;;;;;;5010686;28;20054;-75
2023/01/31 09:04:53;;;;;;;42.87;24.37;;;;;;;;;;5009776;28;20085;-75
2023/01/31 09:07:20;;;;;;;41.67;24.40;;;;;;;;;;5010385;28;20045;-74
2023/01/31 09:09:47;;;;;;;83.20;26.63;;;;;;;;;;5012317;28;20096;-73
2023/01/31 09:12:13;;;;;;;53.77;24.27;;;;;;;;;;5012615;28;20030;-74
2023/01/31 09:14:39;;;;;;;38.90;23.47;;;;;;;;;;5012587;28;20046;-74
2023/01/31 09:17:06;;;;;;;43.67;22.37;;;;;;;;;;4994543;28;20100;-74
2023/01/31 09:19:32;;;;;;;33.50;21.43;;;;;;;;;;5012029;28;20026;-74
2023/01/31 09:21:59;;;;;;;39.57;22.57;;;;;;;;;;4998042;28;20527;-74
2023/01/31 09:24:25;;;;;;;41.43;22.87;;;;;;;;;;5015836;28;20037;-74
2023/01/31 09:26:53;;;;;;;31.77;19.27;;;;;;;;;;4998264;28;20046;-74
2023/01/31 09:29:19;;;;;;;31.97;19.50;;;;;;;;;;5015275;28;20038;-74
2023/01/31 09:31:45;;;;;;;33.73;19.53;;;;;;;;;;5015750;28;20038;-74
2023/01/31 09:34:12;;;;;;;39.23;20.33;;;;;;;;;;5016029;28;20046;-74
2023/01/31 09:36:38;;;;;;;47.40;21.73;;;;;;;;;;5014939;28;20026;-74
2023/01/31 09:39:04;;;;;;;37.70;19.40;;;;;;;;;;5015001;28;20449;-73
2023/01/31 09:41:36;;;;;;;30.70;18.13;;;;;;;;;;5013905;28;20030;-74
2023/01/31 09:44:05;;;;;;;31.90;18.27;;;;;;;;;;5032599;28;20116;-74
2023/01/31 09:46:34;;;;;;;33.57;18.27;;;;;;;;;;5034485;28;20095;-73
2023/01/31 09:49:04;;;;;;;40.27;19.37;;;;;;;;;;5019276;28;20034;-74
2023/01/31 09:51:31;;;;;;;29.50;16.80;;;;;;;;;;4997252;28;20483;-73
2023/01/31 09:53:57;;;;;;;27.37;15.80;;;;;;;;;;5014996;28;20480;-74
2023/01/31 09:56:45;;;;;;;25.13;15.30;;;;;;;;;;5014985;28;20040;-73
2023/01/31 09:59:11;;;;;;;29.00;15.27;;;;;;;;;;4996843;28;20145;-74
2023/01/31 10:01:46;;;;;;;26.73;16.07;;;;;;;;;;5014653;28;20062;-74
2023/01/31 10:04:18;;;;;;;31.83;16.90;;;;;;;;;;5014118;28;20034;-74
2023/01/31 10:06:50;;;;;;;28.07;16.70;;;;;;;;;;5014360;28;20034;-75
2023/01/31 10:09:21;;;;;;;28.40;16.67;;;;;;;;;;5014370;28;20094;-75
2023/01/31 10:11:51;;;;;;;34.37;18.47;;;;;;;;;;5014792;28;20038;-75
2023/01/31 10:14:18;;;;;;;31.23;18.77;;;;;;;;;;5013945;28;20507;-74
2023/01/31 10:16:51;;;;;;;35.43;19.20;;;;;;;;;;5014072;28;20507;-74
2023/01/31 10:19:22;;;;;;;34.15;19.65;;;;;;;;;;5014208;28;20038;-74
2023/01/31 10:21:51;;;;;;;33.17;20.27;;;;;;;;;;5015078;28;20054;-74
2023/01/31 10:24:22;;;;;;;29.77;19.03;;;;;;;;;;5014475;28;20105;-74
2023/01/31 10:26:51;;;;;;;30.77;19.70;;;;;;;;;;4997550;28;20488;-73
2023/01/31 10:29:21;;;;;;;39.10;20.97;;;;;;;;;;5014463;28;20563;-73
2023/01/31 10:31:56;;;;;;;30.90;20.10;;;;;;;;;;4996800;28;20034;-73
2023/01/31 10:34:30;;;;;;;36.10;21.37;;;;;;;;;;5015003;28;20048;-74
2023/01/31 10:36:59;;;;;;;32.87;20.67;;;;;;;;;;5015178;28;20504;-74
2023/01/31 10:39:37;;;;;;;42.67;21.37;;;;;;;;;;5014960;28;20113;-73
2023/01/31 10:42:03;;;;;;;32.27;20.33;;;;;;;;;;4998891;28;20034;-73
2023/01/31 10:44:44;;;;;;;33.40;20.33;;;;;;;;;;5014911;28;20038;-73
2023/01/31 10:47:14;;;;;;;32.00;20.70;;;;;;;;;;5014924;28;20038;-73
2023/01/31 10:49:43;;;;;;;33.00;20.90;;;;;;;;;;4996990;28;20054;-74
2023/01/31 10:52:29;;;;;;;34.30;20.87;;;;;;;;;;4997269;28;20408;-74
2023/01/31 10:55:02;;;;;;;36.43;20.90;;;;;;;;;;5014609;28;20038;-74
2023/01/31 10:57:28;;;;;;;33.87;21.23;;;;;;;;;;5014576;28;20044;-74
2023/01/31 10:59:55;;;;;;;33.83;21.30;;;;;;;;;;4996885;28;20045;-74
2023/01/31 11:02:25;;;;;;;36.37;21.13;;;;;;;;;;5014532;28;20045;-74
2023/01/31 11:04:53;;;;;;;33.33;20.43;;;;;;;;;;5014311;28;20041;-74
2023/01/31 11:07:19;;;;;;;33.07;20.00;;;;;;;;;;5014318;28;20088;-74
2023/01/31 11:09:50;;;;;;;34.13;20.00;;;;;;;;;;5014233;28;20511;-74
2023/01/31 11:12:17;;;;;;;33.00;20.07;;;;;;;;;;5014109;28;20088;-73
2023/01/31 11:14:43;;;;;;;30.93;18.83;;;;;;;;;;5013815;28;20503;-74
2023/01/31 11:17:18;;;;;;;30.57;19.20;;;;;;;;;;5014117;28;20034;-74
2023/01/31 11:19:55;;;;;;;31.40;19.53;;;;;;;;;;5013709;28;20065;-74
2023/01/31 11:22:25;;;;;;;31.17;18.67;;;;;;;;;;5014073;28;20041;-74
2023/01/31 11:24:52;;;;;;;30.83;18.40;;;;;;;;;;5013879;28;20030;-74
2023/01/31 11:27:27;;;;;;;29.90;17.83;;;;;;;;;;5013984;28;20503;-74
2023/01/31 11:29:54;;;;;;;28.67;17.40;;;;;;;;;;5013915;28;20044;-74
2023/01/31 11:32:25;;;;;;;30.20;16.57;;;;;;;;;;5013779;28;20026;-74
2023/01/31 11:35:06;;;;;;;32.33;17.60;;;;;;;;;;5013845;28;20546;-74
2023/01/31 11:37:33;;;;;;;26.17;14.73;;;;;;;;;;4996164;28;20041;-74
2023/01/31 11:40:01;;;;;;;26.27;16.03;;;;;;;;;;5013788;28;20040;-74
2023/01/31 11:42:27;;;;;;;26.80;13.33;;;;;;;;;;5013282;28;20037;-74
2023/01/31 11:44:57;;;;;;;28.83;15.43;;;;;;;;;;5013384;28;20038;-74
2023/01/31 11:47:37;;;;;;;23.87;13.77;;;;;;;;;;5013456;28;20058;-74
2023/01/31 11:50:04;;;;;;;23.87;13.47;;;;;;;;;;5013610;28;20049;-75
2023/01/31 11:52:32;;;;;;;26.77;13.77;;;;;;;;;;5013420;28;20045;-75
2023/01/31 11:55:00;;;;;;;24.33;13.80;;;;;;;;;;5013506;28;20551;-74
2023/01/31 11:57:30;;;;;;;26.40;13.90;;;;;;;;;;5013266;28;21034;-74
2023/01/31 11:59:57;;;;;;;25.47;13.80;;;;;;;;;;5013149;28;20057;-75
2023/01/31 12:02:35;;;;;;;27.53;13.43;;;;;;;;;;5013469;28;20038;-74
2023/01/31 12:05:06;;;;;;;28.13;14.13;;;;;;;;;;4995986;28;20030;-75
2023/01/31 12:07:40;;;;;;;23.60;13.63;;;;;;;;;;5013414;28;20040;-74
2023/01/31 12:10:27;;;;;;;29.27;14.80;;;;;;;;;;5012936;28;20488;-74
2023/01/31 12:12:58;;;;;;;29.70;14.60;;;;;;;;;;5013385;28;20033;-74
2023/01/31 12:15:25;;;;;;;28.57;15.40;;;;;;;;;;5013349;28;20360;-74
2023/01/31 12:17:51;;;;;;;28.23;14.27;;;;;;;;;;5013236;28;20069;-74
2023/01/31 12:20:20;;;;;;;26.57;14.43;;;;;;;;;;5013238;28;20030;-75
2023/01/31 12:23:04;;;;;;;27.83;13.93;;;;;;;;;;5012909;28;20034;-74
2023/01/31 12:25:33;;;;;;;26.20;13.07;;;;;;;;;;5012877;28;20049;-75
2023/01/31 12:28:17;;;;;;;24.97;12.80;;;;;;;;;;5013213;28;20041;-75
2023/01/31 12:30:50;;;;;;;24.07;13.77;;;;;;;;;;5012722;28;20049;-75
2023/01/31 12:33:16;;;;;;;26.58;13.70;;;;;;;;;;5013150;28;20508;-75
2023/01/31 12:35:54;;;;;;;25.43;13.97;;;;;;;;;;5012952;28;20419;-75
2023/01/31 12:38:26;;;;;;;28.23;14.50;;;;;;;;;;5013058;28;20108;-76
2023/01/31 12:40:55;;;;;;;24.80;14.40;;;;;;;;;;5012856;28;20034;-77
2023/01/31 12:43:44;;;;;;;26.80;14.30;;;;;;;;;;5009644;28;20542;-76
2023/01/31 12:46:25;;;;;;;21.80;12.20;;;;;;;;;;5002241;28;20583;-76
2023/01/31 12:49:00;;;;;;;22.53;12.30;;;;;;;;;;5011659;28;20125;-77
2023/01/31 12:51:31;;;;;;;24.37;12.30;;;;;;;;;;5012676;28;20050;-77
2023/01/31 12:54:06;;;;;;;25.80;13.63;;;;;;;;;;5012563;28;20026;-75
2023/01/31 12:56:41;;;;;;;27.77;14.43;;;;;;;;;;4998756;28;20038;-76
2023/01/31 12:59:26;;;;;;;22.57;13.23;;;;;;;;;;5016428;28;20053;-75
2023/01/31 13:01:52;;;;;;;36.63;22.00;;;;;;;;;;4996721;28;20100;-75
2023/01/31 13:04:18;;;;;;;26.37;14.90;;;;;;;;;;5013780;28;20500;-74
2023/01/31 13:06:46;;;;;;;122.43;95.87;;;;;;;;;;5015053;28;20547;-74
2023/01/31 13:09:17;;;;;;;74.63;57.70;;;;;;;;;;5015934;28;20030;-74
2023/01/31 13:12:03;;;;;;;26.73;17.33;;;;;;;;;;5015459;28;20048;-74
2023/01/31 13:14:32;;;;;;;24.73;13.00;;;;;;;;;;5015712;28;20030;-74
2023/01/31 13:17:00;;;;;;;25.93;14.77;;;;;;;;;;5016427;28;20048;-74
2023/01/31 13:19:34;;;;;;;24.63;13.60;;;;;;;;;;5016253;28;20088;-74
2023/01/31 13:22:03;;;;;;;25.03;13.53;;;;;;;;;;5016161;28;20034;-75
2023/01/31 13:24:33;;;;;;;25.90;12.03;;;;;;;;;;5016492;28;20038;-77
2023/01/31 13:27:11;;;;;;;24.77;12.87;;;;;;;;;;5016003;28;20049;-77
2023/01/31 13:29:45;;;;;;;33.20;12.10;;;;;;;;;;5015624;28;20041;-78
2023/01/31 13:32:33;;;;;;;25.17;12.30;;;;;;;;;;4998390;28;20041;-75
2023/01/31 13:35:00;;;;;;;23.73;12.60;;;;;;;;;;5015710;28;20069;-75
2023/01/31 13:37:29;;;;;;;22.17;12.67;;;;;;;;;;5015598;28;20072;-76
2023/01/31 13:40:01;;;;;;;20.57;12.17;;;;;;;;;;5015109;28;20034;-75
2023/01/31 13:42:27;;;;;;;22.35;12.20;;;;;;;;;;5015496;28;20516;-76
2023/01/31 13:44:53;;;;;;;19.60;11.77;;;;;;;;;;5016101;28;20065;-75
2023/01/31 13:47:31;;;;;;;24.07;11.97;;;;;;;;;;5016196;28;20057;-75
2023/01/31 13:50:16;;;;;;;21.13;11.10;;;;;;;;;;5015265;28;20096;-75
2023/01/31 13:52:47;;;;;;;22.23;11.97;;;;;;;;;;5015855;28;20038;-75
2023/01/31 13:55:28;;;;;;;24.13;12.23;;;;;;;;;;5015556;28;20041;-75
2023/01/31 13:58:12;;;;;;;22.17;11.47;;;;;;;;;;5015602;28;20113;-76
2023/01/31 14:00:40;;;;;;;23.47;11.87;;;;;;;;;;5015640;28;20058;-76
2023/01/31 14:03:10;;;;;;;25.20;11.97;;;;;;;;;;5015762;28;20065;-76
2023/01/31 14:05:49;;;;;;;23.90;12.47;;;;;;;;;;4997547;28;20109;-75
2023/01/31 14:08:24;;;;;;;19.47;10.70;;;;;;;;;;4997817;28;20062;-75
2023/01/31 14:10:50;;;;;;;24.33;11.13;;;;;;;;;;5015363;28;20100;-75
2023/01/31 14:13:35;;;;;;;22.00;10.67;;;;;;;;;;5015661;28;20056;-76
2023/01/31 14:16:01;;;;;;;17.00;9.20;;;;;;;;;;5015495;28;20480;-75
2023/01/31 14:18:41;;;;;;;30.87;15.63;;;;;;;;;;5015323;28;20041;-75
2023/01/31 14:21:26;;;;;;;22.63;11.80;;;;;;;;;;5015066;28;20042;-75
2023/01/31 14:23:52;;;;;;;22.33;11.70;;;;;;;;;;5015287;28;20417;-74
2023/01/31 14:26:37;;;;;;;22.00;11.50;;;;;;;;;;4997405;28;20026;-75
2023/01/31 14:29:14;;;;;;;26.77;11.87;;;;;;;;;;4997477;28;20042;-75
2023/01/31 14:31:40;;;;;;;24.30;11.40;;;;;;;;;;5015159;28;20033;-75
2023/01/31 14:34:14;;;;;;;20.00;9.80;;;;;;;;;;5014925;28;20118;-74
2023/01/31 14:36:43;;;;;;;49.73;18.20;;;;;;;;;;5015065;28;20567;-74
2023/01/31 14:39:12;;;;;;;24.10;10.30;;;;;;;;;;5015091;28;20045;-74
2023/01/31 14:41:38;;;;;;;18.33;9.20;;;;;;;;;;5014894;28;20113;-74